KOAK/OAK METAR and TAF weather

Enter ICAO airport designator
Station Type Date Time Source
KOAK METAR 2021/09/25 03:23 UTC NOAA

KOAK 250323Z 31008KT 10SM BKN010 BKN200 16/13 A2993 RMK AO2 T01560133


Station Type Date Time Source
KOAK Decoded METAR 2021/09/25 03:23 UTC NOAA

METRO OAKLAND INTERNATIONAL AIRPORT , CA, United States (KOAK) 37-43N 122-14W 26M
Sep 24, 2021 - 11:23 PM EDT / 2021.09.25 0323 UTC
Wind: from the NW (310 degrees) at 9 MPH (8 KT):0
Visibility: 10 mile(s):0
Sky conditions: mostly cloudy
Temperature: 60.1 F (15.6 C)
Dew Point: 55.9 F (13.3 C)
Relative Humidity: 86%
Pressure (altimeter): 29.93 in. Hg (1013 hPa)
ob: KOAK 250323Z 31008KT 10SM BKN010 BKN200 16/13 A2993 RMK AO2 T01560133
cycle: 3

Station Type Date Time Source
KOAK TAF 2021/09/24 18:24 UTC NOAA

TAF KOAK 241723Z 2418/2524 31007KT P6SM FEW005 FEW200
FM242100 31012KT P6SM FEW007 SCT200
FM250300 31008KT P6SM SCT010 SCT200
FM250600 31006KT P6SM BKN010
FM251800 30006KT P6SM FEW014 SCT200
FM252100 31012KT P6SM SCT200

Example: see airport list